ROMD(METAR)
08/24 02:00
METAR ROMD 231700Z AUTO 16009KT 120V190 9999 BKN011 28/26 Q1011 RMK
A2988=
戻る
トップページへ戻る
IMOC Co,.Ltd.